sensor_id;sensor_type;location;lat;lon;timestamp;temperature;humidity
15959;DHT22;8078;47.822;9.402;2023-03-01T00:00:53;-2.00;99.90
15959;DHT22;8078;47.822;9.402;2023-03-01T00:03:18;-2.00;99.90
15959;DHT22;8078;47.822;9.402;2023-03-01T00:05:45;-2.00;99.90
15959;DHT22;8078;47.822;9.402;2023-03-01T00:08:11;-2.00;99.90
15959;DHT22;8078;47.822;9.402;2023-03-01T00:10:37;-2.00;99.90
15959;DHT22;8078;47.822;9.402;2023-03-01T00:13:02;-2.00;99.90
15959;DHT22;8078;47.822;9.402;2023-03-01T00:15:31;-2.00;99.90
15959;DHT22;8078;47.822;9.402;2023-03-01T00:17:56;-2.00;99.90
15959;DHT22;8078;47.822;9.402;2023-03-01T00:20:22;-2.00;99.90
15959;DHT22;8078;47.822;9.402;2023-03-01T00:22:48;-2.00;99.90
15959;DHT22;8078;47.822;9.402;2023-03-01T00:25:16;-2.00;99.90
15959;DHT22;8078;47.822;9.402;2023-03-01T00:27:41;-2.00;99.90
15959;DHT22;8078;47.822;9.402;2023-03-01T00:30:07;-1.90;99.90
15959;DHT22;8078;47.822;9.402;2023-03-01T00:32:33;-1.90;99.90
15959;DHT22;8078;47.822;9.402;2023-03-01T00:34:59;-1.90;99.90
15959;DHT22;8078;47.822;9.402;2023-03-01T00:37:24;-1.90;99.90
15959;DHT22;8078;47.822;9.402;2023-03-01T00:39:50;-2.00;99.90
15959;DHT22;8078;47.822;9.402;2023-03-01T00:42:16;-1.90;99.90
15959;DHT22;8078;47.822;9.402;2023-03-01T00:44:42;-1.90;99.90
15959;DHT22;8078;47.822;9.402;2023-03-01T00:47:08;-1.90;99.90
15959;DHT22;8078;47.822;9.402;2023-03-01T00:49:34;-1.90;99.90
15959;DHT22;8078;47.822;9.402;2023-03-01T00:52:00;-1.90;99.90
15959;DHT22;8078;47.822;9.402;2023-03-01T00:54:26;-1.90;99.90
15959;DHT22;8078;47.822;9.402;2023-03-01T00:56:51;-1.90;99.90
15959;DHT22;8078;47.822;9.402;2023-03-01T00:59:17;-1.90;99.90
15959;DHT22;8078;47.822;9.402;2023-03-01T01:01:42;-1.90;99.90
15959;DHT22;8078;47.822;9.402;2023-03-01T01:04:11;-1.90;99.90
15959;DHT22;8078;47.822;9.402;2023-03-01T01:06:45;-1.90;99.90
15959;DHT22;8078;47.822;9.402;2023-03-01T01:09:13;-1.90;99.90
15959;DHT22;8078;47.822;9.402;2023-03-01T01:11:46;-1.90;99.90
15959;DHT22;8078;47.822;9.402;2023-03-01T01:14:12;-1.90;99.90
15959;DHT22;8078;47.822;9.402;2023-03-01T01:16:38;-1.90;99.90
15959;DHT22;8078;47.822;9.402;2023-03-01T01:19:04;-1.90;99.90
15959;DHT22;8078;47.822;9.402;2023-03-01T01:21:29;-1.90;99.90
15959;DHT22;8078;47.822;9.402;2023-03-01T01:23:55;-1.90;99.90
15959;DHT22;8078;47.822;9.402;2023-03-01T01:26:24;-1.90;99.90
15959;DHT22;8078;47.822;9.402;2023-03-01T01:28:50;-1.90;99.90
15959;DHT22;8078;47.822;9.402;2023-03-01T01:31:17;-1.90;99.90
15959;DHT22;8078;47.822;9.402;2023-03-01T01:33:43;-1.90;99.90
15959;DHT22;8078;47.822;9.402;2023-03-01T01:36:09;-1.90;99.90
15959;DHT22;8078;47.822;9.402;2023-03-01T01:38:36;-1.90;99.90
15959;DHT22;8078;47.822;9.402;2023-03-01T01:41:02;-1.90;99.90
15959;DHT22;8078;47.822;9.402;2023-03-01T01:43:35;-1.90;99.90
15959;DHT22;8078;47.822;9.402;2023-03-01T01:46:10;-1.90;99.90
15959;DHT22;8078;47.822;9.402;2023-03-01T01:48:45;-1.90;99.90
15959;DHT22;8078;47.822;9.402;2023-03-01T01:51:15;-1.90;99.90
15959;DHT22;8078;47.822;9.402;2023-03-01T01:53:44;-1.90;99.90
15959;DHT22;8078;47.822;9.402;2023-03-01T01:56:12;-1.90;99.90
15959;DHT22;8078;47.822;9.402;2023-03-01T01:58:41;-1.90;99.90
15959;DHT22;8078;47.822;9.402;2023-03-01T02:01:07;-2.00;99.90
15959;DHT22;8078;47.822;9.402;2023-03-01T02:03:34;-2.00;99.90
15959;DHT22;8078;47.822;9.402;2023-03-01T02:08:38;-2.00;99.90
15959;DHT22;8078;47.822;9.402;2023-03-01T02:11:05;-2.00;99.90
15959;DHT22;8078;47.822;9.402;2023-03-01T02:13:33;-2.00;99.90
15959;DHT22;8078;47.822;9.402;2023-03-01T02:16:02;-2.00;99.90
15959;DHT22;8078;47.822;9.402;2023-03-01T02:18:27;-2.00;99.90
15959;DHT22;8078;47.822;9.402;2023-03-01T02:23:31;-2.00;99.90
15959;DHT22;8078;47.822;9.402;2023-03-01T02:26:41;-2.00;99.90
15959;DHT22;8078;47.822;9.402;2023-03-01T02:29:05;-2.00;99.90
15959;DHT22;8078;47.822;9.402;2023-03-01T02:31:31;-2.00;99.90
15959;DHT22;8078;47.822;9.402;2023-03-01T02:34:22;-2.00;99.90
15959;DHT22;8078;47.822;9.402;2023-03-01T02:36:51;-2.10;99.90
15959;DHT22;8078;47.822;9.402;2023-03-01T02:39:22;-2.00;99.90
15959;DHT22;8078;47.822;9.402;2023-03-01T02:41:52;-2.10;99.90
15959;DHT22;8078;47.822;9.402;2023-03-01T02:44:18;-2.10;99.90
15959;DHT22;8078;47.822;9.402;2023-03-01T02:46:48;-2.10;99.90
15959;DHT22;8078;47.822;9.402;2023-03-01T02:49:23;-2.10;99.90
15959;DHT22;8078;47.822;9.402;2023-03-01T02:54:40;-2.20;99.90
15959;DHT22;8078;47.822;9.402;2023-03-01T02:57:08;-2.20;99.90
15959;DHT22;8078;47.822;9.402;2023-03-01T02:59:35;-2.30;99.90
15959;DHT22;8078;47.822;9.402;2023-03-01T03:02:05;-2.30;99.90
15959;DHT22;8078;47.822;9.402;2023-03-01T03:04:31;-2.30;99.90
15959;DHT22;8078;47.822;9.402;2023-03-01T03:06:57;-2.30;99.90
15959;DHT22;8078;47.822;9.402;2023-03-01T03:09:22;-2.30;99.90
15959;DHT22;8078;47.822;9.402;2023-03-01T03:11:48;-2.30;99.90
15959;DHT22;8078;47.822;9.402;2023-03-01T03:14:16;-2.30;99.90
15959;DHT22;8078;47.822;9.402;2023-03-01T03:16:49;-2.30;99.90
15959;DHT22;8078;47.822;9.402;2023-03-01T03:19:17;-2.30;99.90
15959;DHT22;8078;47.822;9.402;2023-03-01T03:21:43;-2.30;99.90
15959;DHT22;8078;47.822;9.402;2023-03-01T03:24:09;-2.30;99.90
15959;DHT22;8078;47.822;9.402;2023-03-01T03:26:34;-2.30;99.90
15959;DHT22;8078;47.822;9.402;2023-03-01T03:29:00;-2.30;99.90
15959;DHT22;8078;47.822;9.402;2023-03-01T03:31:26;-2.40;99.90
15959;DHT22;8078;47.822;9.402;2023-03-01T03:33:52;-2.40;99.90
15959;DHT22;8078;47.822;9.402;2023-03-01T03:36:22;-2.40;99.90
15959;DHT22;8078;47.822;9.402;2023-03-01T03:38:48;-2.40;99.90
15959;DHT22;8078;47.822;9.402;2023-03-01T03:41:15;-2.40;99.90
15959;DHT22;8078;47.822;9.402;2023-03-01T03:43:41;-2.40;99.90
15959;DHT22;8078;47.822;9.402;2023-03-01T03:46:08;-2.40;99.90
15959;DHT22;8078;47.822;9.402;2023-03-01T03:48:43;-2.40;99.90
15959;DHT22;8078;47.822;9.402;2023-03-01T03:51:13;-2.40;99.90
15959;DHT22;8078;47.822;9.402;2023-03-01T03:53:39;-2.40;99.90
15959;DHT22;8078;47.822;9.402;2023-03-01T03:56:06;-2.40;99.90
15959;DHT22;8078;47.822;9.402;2023-03-01T03:58:31;-2.40;99.90
15959;DHT22;8078;47.822;9.402;2023-03-01T04:00:57;-2.40;99.90
15959;DHT22;8078;47.822;9.402;2023-03-01T04:03:24;-2.40;99.90
15959;DHT22;8078;47.822;9.402;2023-03-01T04:05:50;-2.40;99.90
15959;DHT22;8078;47.822;9.402;2023-03-01T04:08:17;-2.40;99.90
15959;DHT22;8078;47.822;9.402;2023-03-01T04:10:47;-2.40;99.90
15959;DHT22;8078;47.822;9.402;2023-03-01T04:13:16;-2.40;99.90
15959;DHT22;8078;47.822;9.402;2023-03-01T04:15:42;-2.40;99.90
15959;DHT22;8078;47.822;9.402;2023-03-01T04:18:15;-2.40;99.90
15959;DHT22;8078;47.822;9.402;2023-03-01T04:20:41;-2.40;99.90
15959;DHT22;8078;47.822;9.402;2023-03-01T04:23:18;-2.40;99.90
15959;DHT22;8078;47.822;9.402;2023-03-01T04:25:52;-2.40;99.90
15959;DHT22;8078;47.822;9.402;2023-03-01T04:28:27;-2.30;99.90
15959;DHT22;8078;47.822;9.402;2023-03-01T04:30:54;-2.40;99.90
15959;DHT22;8078;47.822;9.402;2023-03-01T04:33:21;-2.30;99.90
15959;DHT22;8078;47.822;9.402;2023-03-01T04:35:48;-2.30;99.90
15959;DHT22;8078;47.822;9.402;2023-03-01T04:38:15;-2.30;99.90
15959;DHT22;8078;47.822;9.402;2023-03-01T04:40:41;-2.30;99.90
15959;DHT22;8078;47.822;9.402;2023-03-01T04:43:09;-2.30;99.90
15959;DHT22;8078;47.822;9.402;2023-03-01T04:45:35;-2.30;99.90
15959;DHT22;8078;47.822;9.402;2023-03-01T04:48:01;-2.30;99.90
15959;DHT22;8078;47.822;9.402;2023-03-01T04:50:27;-2.30;99.90
15959;DHT22;8078;47.822;9.402;2023-03-01T04:52:53;-2.30;99.90
15959;DHT22;8078;47.822;9.402;2023-03-01T04:55:19;-2.30;99.90
15959;DHT22;8078;47.822;9.402;2023-03-01T04:57:44;-2.30;99.90
15959;DHT22;8078;47.822;9.402;2023-03-01T05:00:12;-2.30;99.90
15959;DHT22;8078;47.822;9.402;2023-03-01T05:02:55;-2.30;99.90
15959;DHT22;8078;47.822;9.402;2023-03-01T05:05:27;-2.30;99.90
15959;DHT22;8078;47.822;9.402;2023-03-01T05:07:54;-2.30;99.90
15959;DHT22;8078;47.822;9.402;2023-03-01T05:10:20;-2.30;99.90
15959;DHT22;8078;47.822;9.402;2023-03-01T05:12:46;-2.30;99.90
15959;DHT22;8078;47.822;9.402;2023-03-01T05:15:12;-2.30;99.90
15959;DHT22;8078;47.822;9.402;2023-03-01T05:17:37;-2.30;99.90
15959;DHT22;8078;47.822;9.402;2023-03-01T05:20:03;-2.30;99.90
15959;DHT22;8078;47.822;9.402;2023-03-01T05:22:34;-2.30;99.90
15959;DHT22;8078;47.822;9.402;2023-03-01T05:24:59;-2.30;99.90
15959;DHT22;8078;47.822;9.402;2023-03-01T05:27:25;-2.30;99.90
15959;DHT22;8078;47.822;9.402;2023-03-01T05:29:51;-2.30;99.90
15959;DHT22;8078;47.822;9.402;2023-03-01T05:32:16;-2.30;99.90
15959;DHT22;8078;47.822;9.402;2023-03-01T05:34:42;-2.30;99.90
15959;DHT22;8078;47.822;9.402;2023-03-01T05:37:08;-2.30;99.90
15959;DHT22;8078;47.822;9.402;2023-03-01T05:39:34;-2.30;99.90
15959;DHT22;8078;47.822;9.402;2023-03-01T05:42:00;-2.30;99.90
15959;DHT22;8078;47.822;9.402;2023-03-01T05:44:28;-2.30;99.90
15959;DHT22;8078;47.822;9.402;2023-03-01T05:46:54;-2.30;99.90
15959;DHT22;8078;47.822;9.402;2023-03-01T05:49:19;-2.30;99.90
15959;DHT22;8078;47.822;9.402;2023-03-01T05:51:50;-2.30;99.90
15959;DHT22;8078;47.822;9.402;2023-03-01T05:54:16;-2.30;99.90
15959;DHT22;8078;47.822;9.402;2023-03-01T05:56:41;-2.30;99.90
15959;DHT22;8078;47.822;9.402;2023-03-01T05:59:07;-2.30;99.90
15959;DHT22;8078;47.822;9.402;2023-03-01T06:01:34;-2.30;99.90
15959;DHT22;8078;47.822;9.402;2023-03-01T06:04:00;-2.30;99.90
15959;DHT22;8078;47.822;9.402;2023-03-01T06:06:25;-2.30;99.90
15959;DHT22;8078;47.822;9.402;2023-03-01T06:08:52;-2.30;99.90
15959;DHT22;8078;47.822;9.402;2023-03-01T06:11:17;-2.30;99.90
15959;DHT22;8078;47.822;9.402;2023-03-01T06:13:44;-2.30;99.90
15959;DHT22;8078;47.822;9.402;2023-03-01T06:16:10;-2.30;99.90
15959;DHT22;8078;47.822;9.402;2023-03-01T06:18:36;-2.30;99.90
15959;DHT22;8078;47.822;9.402;2023-03-01T06:21:02;-2.30;99.90
15959;DHT22;8078;47.822;9.402;2023-03-01T06:23:28;-2.30;99.90
15959;DHT22;8078;47.822;9.402;2023-03-01T06:25:54;-2.30;99.90
15959;DHT22;8078;47.822;9.402;2023-03-01T06:28:19;-2.20;99.90
15959;DHT22;8078;47.822;9.402;2023-03-01T06:30:45;-2.30;99.90
15959;DHT22;8078;47.822;9.402;2023-03-01T06:33:11;-2.30;99.90
15959;DHT22;8078;47.822;9.402;2023-03-01T06:35:37;-2.30;99.90
15959;DHT22;8078;47.822;9.402;2023-03-01T06:38:04;-2.20;99.90
15959;DHT22;8078;47.822;9.402;2023-03-01T06:40:30;-2.20;99.90
15959;DHT22;8078;47.822;9.402;2023-03-01T06:42:56;-2.20;99.90
15959;DHT22;8078;47.822;9.402;2023-03-01T06:45:22;-2.20;99.90
15959;DHT22;8078;47.822;9.402;2023-03-01T06:47:48;-2.20;99.90
15959;DHT22;8078;47.822;9.402;2023-03-01T06:50:14;-2.20;99.90
15959;DHT22;8078;47.822;9.402;2023-03-01T06:52:41;-2.20;99.90
15959;DHT22;8078;47.822;9.402;2023-03-01T06:55:07;-2.20;99.90
15959;DHT22;8078;47.822;9.402;2023-03-01T06:57:32;-2.20;99.90
15959;DHT22;8078;47.822;9.402;2023-03-01T06:59:58;-2.20;99.90
15959;DHT22;8078;47.822;9.402;2023-03-01T07:02:23;-2.10;99.90
15959;DHT22;8078;47.822;9.402;2023-03-01T07:04:50;-2.10;99.90
15959;DHT22;8078;47.822;9.402;2023-03-01T07:07:16;-2.10;99.90
15959;DHT22;8078;47.822;9.402;2023-03-01T07:09:46;-2.10;99.90
15959;DHT22;8078;47.822;9.402;2023-03-01T07:12:12;-2.10;99.90
15959;DHT22;8078;47.822;9.402;2023-03-01T07:14:37;-2.10;99.90
15959;DHT22;8078;47.822;9.402;2023-03-01T07:17:03;-2.10;99.90
15959;DHT22;8078;47.822;9.402;2023-03-01T07:19:29;-2.10;99.90
15959;DHT22;8078;47.822;9.402;2023-03-01T07:21:54;-2.10;99.90
15959;DHT22;8078;47.822;9.402;2023-03-01T07:24:21;-2.00;99.90
15959;DHT22;8078;47.822;9.402;2023-03-01T07:26:51;-2.00;99.90
15959;DHT22;8078;47.822;9.402;2023-03-01T07:29:17;-2.00;99.90
15959;DHT22;8078;47.822;9.402;2023-03-01T07:31:43;-1.90;99.90
15959;DHT22;8078;47.822;9.402;2023-03-01T07:34:09;-1.90;99.90
15959;DHT22;8078;47.822;9.402;2023-03-01T07:36:36;-1.90;99.90
15959;DHT22;8078;47.822;9.402;2023-03-01T07:39:01;-2.00;99.90
15959;DHT22;8078;47.822;9.402;2023-03-01T07:41:28;-1.90;99.90
15959;DHT22;8078;47.822;9.402;2023-03-01T07:43:54;-1.90;99.90
15959;DHT22;8078;47.822;9.402;2023-03-01T07:46:20;-1.90;99.90
15959;DHT22;8078;47.822;9.402;2023-03-01T07:48:45;-1.90;99.90
15959;DHT22;8078;47.822;9.402;2023-03-01T07:51:11;-1.80;99.90
15959;DHT22;8078;47.822;9.402;2023-03-01T07:53:36;-1.80;99.90
15959;DHT22;8078;47.822;9.402;2023-03-01T07:56:10;-1.80;99.90
15959;DHT22;8078;47.822;9.402;2023-03-01T07:58:42;-1.80;99.90
15959;DHT22;8078;47.822;9.402;2023-03-01T08:01:14;-1.80;99.90
15959;DHT22;8078;47.822;9.402;2023-03-01T08:03:40;-1.80;99.90
15959;DHT22;8078;47.822;9.402;2023-03-01T08:06:07;-1.80;99.90
15959;DHT22;8078;47.822;9.402;2023-03-01T08:08:34;-1.70;99.90
15959;DHT22;8078;47.822;9.402;2023-03-01T08:11:02;-1.70;99.90
15959;DHT22;8078;47.822;9.402;2023-03-01T08:13:29;-1.60;99.90
15959;DHT22;8078;47.822;9.402;2023-03-01T08:15:54;-1.60;99.90
15959;DHT22;8078;47.822;9.402;2023-03-01T08:18:21;-1.60;99.90
15959;DHT22;8078;47.822;9.402;2023-03-01T08:20:47;-1.60;99.90
15959;DHT22;8078;47.822;9.402;2023-03-01T08:23:12;-1.60;99.90
15959;DHT22;8078;47.822;9.402;2023-03-01T08:25:38;-1.60;99.90
15959;DHT22;8078;47.822;9.402;2023-03-01T08:28:05;-1.50;99.90
15959;DHT22;8078;47.822;9.402;2023-03-01T08:30:31;-1.50;99.90
15959;DHT22;8078;47.822;9.402;2023-03-01T08:32:57;-1.50;99.90
15959;DHT22;8078;47.822;9.402;2023-03-01T08:35:23;-1.50;99.90
15959;DHT22;8078;47.822;9.402;2023-03-01T08:37:48;-1.50;99.90
15959;DHT22;8078;47.822;9.402;2023-03-01T08:40:14;-1.50;99.90
15959;DHT22;8078;47.822;9.402;2023-03-01T08:42:41;-1.50;99.90
15959;DHT22;8078;47.822;9.402;2023-03-01T08:45:09;-1.40;99.90
15959;DHT22;8078;47.822;9.402;2023-03-01T08:47:34;-1.40;99.90
15959;DHT22;8078;47.822;9.402;2023-03-01T08:50:00;-1.50;99.90
15959;DHT22;8078;47.822;9.402;2023-03-01T08:52:26;-1.40;99.90
15959;DHT22;8078;47.822;9.402;2023-03-01T08:54:52;-1.40;99.90
15959;DHT22;8078;47.822;9.402;2023-03-01T08:57:17;-1.40;99.90
15959;DHT22;8078;47.822;9.402;2023-03-01T08:59:43;-1.40;99.90
15959;DHT22;8078;47.822;9.402;2023-03-01T09:02:14;-1.30;99.90
15959;DHT22;8078;47.822;9.402;2023-03-01T09:04:40;-1.20;99.90
15959;DHT22;8078;47.822;9.402;2023-03-01T09:07:07;-1.20;99.90
15959;DHT22;8078;47.822;9.402;2023-03-01T09:09:33;-1.10;99.90
15959;DHT22;8078;47.822;9.402;2023-03-01T09:11:58;-1.20;99.90
15959;DHT22;8078;47.822;9.402;2023-03-01T09:14:24;-1.20;99.90
15959;DHT22;8078;47.822;9.402;2023-03-01T09:16:50;-1.20;99.90
15959;DHT22;8078;47.822;9.402;2023-03-01T09:19:15;-1.10;99.90
15959;DHT22;8078;47.822;9.402;2023-03-01T09:21:41;-1.10;99.90
15959;DHT22;8078;47.822;9.402;2023-03-01T09:24:14;-1.00;99.90
15959;DHT22;8078;47.822;9.402;2023-03-01T09:26:40;-1.10;99.90
15959;DHT22;8078;47.822;9.402;2023-03-01T09:29:05;-1.00;99.90
15959;DHT22;8078;47.822;9.402;2023-03-01T09:31:31;-1.00;99.90
15959;DHT22;8078;47.822;9.402;2023-03-01T09:33:56;-1.00;99.90
15959;DHT22;8078;47.822;9.402;2023-03-01T09:36:24;-0.90;99.90
15959;DHT22;8078;47.822;9.402;2023-03-01T09:38:50;-0.90;99.90
15959;DHT22;8078;47.822;9.402;2023-03-01T09:46:50;-0.90;99.90
15959;DHT22;8078;47.822;9.402;2023-03-01T09:49:26;-0.90;99.90
15959;DHT22;8078;47.822;9.402;2023-03-01T09:52:23;-0.90;99.90
15959;DHT22;8078;47.822;9.402;2023-03-01T09:54:55;-0.90;99.90
15959;DHT22;8078;47.822;9.402;2023-03-01T09:57:37;-0.90;99.90
15959;DHT22;8078;47.822;9.402;2023-03-01T10:03:27;-0.70;99.90
15959;DHT22;8078;47.822;9.402;2023-03-01T10:06:04;-0.70;99.90
15959;DHT22;8078;47.822;9.402;2023-03-01T10:08:46;-0.60;99.90
15959;DHT22;8078;47.822;9.402;2023-03-01T10:11:25;-0.50;99.90
15959;DHT22;8078;47.822;9.402;2023-03-01T10:14:03;-0.50;99.90
15959;DHT22;8078;47.822;9.402;2023-03-01T10:19:05;-0.50;99.90
15959;DHT22;8078;47.822;9.402;2023-03-01T10:21:43;-0.40;99.90
15959;DHT22;8078;47.822;9.402;2023-03-01T10:24:15;-0.30;99.90
15959;DHT22;8078;47.822;9.402;2023-03-01T10:26:53;-0.30;99.90
15959;DHT22;8078;47.822;9.402;2023-03-01T10:29:29;-0.20;99.90
15959;DHT22;8078;47.822;9.402;2023-03-01T10:31:57;-0.40;99.90
15959;DHT22;8078;47.822;9.402;2023-03-01T10:34:31;-0.40;99.90
15959;DHT22;8078;47.822;9.402;2023-03-01T10:37:13;-0.50;99.90
15959;DHT22;8078;47.822;9.402;2023-03-01T10:40:02;-0.50;99.90
15959;DHT22;8078;47.822;9.402;2023-03-01T10:42:52;-0.50;99.90
15959;DHT22;8078;47.822;9.402;2023-03-01T10:45:37;-0.50;99.90
15959;DHT22;8078;47.822;9.402;2023-03-01T10:48:26;-0.30;99.90
15959;DHT22;8078;47.822;9.402;2023-03-01T10:53:40;-0.40;99.90
15959;DHT22;8078;47.822;9.402;2023-03-01T10:56:11;-0.40;99.90
15959;DHT22;8078;47.822;9.402;2023-03-01T10:58:40;-0.40;99.90
15959;DHT22;8078;47.822;9.402;2023-03-01T11:01:25;-0.30;99.90
15959;DHT22;8078;47.822;9.402;2023-03-01T11:06:36;-0.20;99.90
15959;DHT22;8078;47.822;9.402;2023-03-01T11:09:15;-0.10;99.90
15959;DHT22;8078;47.822;9.402;2023-03-01T11:11:41;-0.20;99.90
15959;DHT22;8078;47.822;9.402;2023-03-01T11:16:35;-0.30;99.90
15959;DHT22;8078;47.822;9.402;2023-03-01T11:24:06;-0.30;99.90
15959;DHT22;8078;47.822;9.402;2023-03-01T11:26:37;-0.40;99.90
15959;DHT22;8078;47.822;9.402;2023-03-01T11:29:12;-0.40;99.90
15959;DHT22;8078;47.822;9.402;2023-03-01T11:31:40;-0.50;99.90
15959;DHT22;8078;47.822;9.402;2023-03-01T11:34:13;-0.40;99.90
15959;DHT22;8078;47.822;9.402;2023-03-01T11:36:48;-0.40;99.90
15959;DHT22;8078;47.822;9.402;2023-03-01T11:39:26;-0.40;99.90
15959;DHT22;8078;47.822;9.402;2023-03-01T11:42:04;-0.30;99.90
15959;DHT22;8078;47.822;9.402;2023-03-01T11:44:33;-0.20;99.90
15959;DHT22;8078;47.822;9.402;2023-03-01T11:47:24;-0.20;99.90
15959;DHT22;8078;47.822;9.402;2023-03-01T11:55:21;-0.10;99.90
15959;DHT22;8078;47.822;9.402;2023-03-01T12:00:37;0.10;99.90
15959;DHT22;8078;47.822;9.402;2023-03-01T12:12:36;0.40;99.90
15959;DHT22;8078;47.822;9.402;2023-03-01T12:15:45;0.40;99.90
15959;DHT22;8078;47.822;9.402;2023-03-01T12:21:06;0.40;99.90
15959;DHT22;8078;47.822;9.402;2023-03-01T12:26:33;0.60;99.90
15959;DHT22;8078;47.822;9.402;2023-03-01T12:29:16;0.50;99.90
15959;DHT22;8078;47.822;9.402;2023-03-01T12:32:07;0.60;99.90
15959;DHT22;8078;47.822;9.402;2023-03-01T12:45:44;0.30;99.90
15959;DHT22;8078;47.822;9.402;2023-03-01T12:48:31;0.30;99.90
15959;DHT22;8078;47.822;9.402;2023-03-01T12:51:08;0.40;99.90
15959;DHT22;8078;47.822;9.402;2023-03-01T12:53:44;0.30;99.90
15959;DHT22;8078;47.822;9.402;2023-03-01T12:56:15;0.20;99.90
15959;DHT22;8078;47.822;9.402;2023-03-01T13:01:45;0.00;99.90
15959;DHT22;8078;47.822;9.402;2023-03-01T13:04:28;0.10;99.90
15959;DHT22;8078;47.822;9.402;2023-03-01T13:10:19;0.30;99.90
15959;DHT22;8078;47.822;9.402;2023-03-01T13:13:00;0.50;99.90
15959;DHT22;8078;47.822;9.402;2023-03-01T13:15:32;0.60;99.90
15959;DHT22;8078;47.822;9.402;2023-03-01T13:34:00;0.40;99.90
15959;DHT22;8078;47.822;9.402;2023-03-01T13:39:26;0.50;99.90
15959;DHT22;8078;47.822;9.402;2023-03-01T13:41:55;0.30;99.90
15959;DHT22;8078;47.822;9.402;2023-03-01T13:46:50;0.40;99.90
15959;DHT22;8078;47.822;9.402;2023-03-01T13:49:19;0.40;99.90
15959;DHT22;8078;47.822;9.402;2023-03-01T13:51:49;0.40;99.90
15959;DHT22;8078;47.822;9.402;2023-03-01T13:54:17;0.40;99.90
15959;DHT22;8078;47.822;9.402;2023-03-01T13:56:44;0.50;99.90
15959;DHT22;8078;47.822;9.402;2023-03-01T13:59:18;0.50;99.90
15959;DHT22;8078;47.822;9.402;2023-03-01T14:01:44;0.30;99.90
15959;DHT22;8078;47.822;9.402;2023-03-01T14:04:23;0.30;99.90
15959;DHT22;8078;47.822;9.402;2023-03-01T14:06:49;0.30;99.90
15959;DHT22;8078;47.822;9.402;2023-03-01T14:09:19;0.20;99.90
15959;DHT22;8078;47.822;9.402;2023-03-01T14:14:59;0.20;99.90
15959;DHT22;8078;47.822;9.402;2023-03-01T14:20:00;0.30;99.90
15959;DHT22;8078;47.822;9.402;2023-03-01T14:22:32;0.30;99.90
15959;DHT22;8078;47.822;9.402;2023-03-01T14:25:16;0.40;99.90
15959;DHT22;8078;47.822;9.402;2023-03-01T14:27:43;0.50;99.90
15959;DHT22;8078;47.822;9.402;2023-03-01T14:30:16;0.70;99.90
15959;DHT22;8078;47.822;9.402;2023-03-01T14:33:02;0.70;99.90
15959;DHT22;8078;47.822;9.402;2023-03-01T14:35:33;0.60;99.90
15959;DHT22;8078;47.822;9.402;2023-03-01T14:38:00;0.90;99.90
15959;DHT22;8078;47.822;9.402;2023-03-01T14:40:28;1.70;99.90
15959;DHT22;8078;47.822;9.402;2023-03-01T14:42:57;2.60;99.90
15959;DHT22;8078;47.822;9.402;2023-03-01T14:45:25;3.20;99.90
15959;DHT22;8078;47.822;9.402;2023-03-01T14:47:52;3.70;99.90
15959;DHT22;8078;47.822;9.402;2023-03-01T14:50:25;3.80;99.90
15959;DHT22;8078;47.822;9.402;2023-03-01T14:52:55;3.50;99.90
15959;DHT22;8078;47.822;9.402;2023-03-01T14:55:33;3.80;99.90
15959;DHT22;8078;47.822;9.402;2023-03-01T14:58:03;3.60;99.90
15959;DHT22;8078;47.822;9.402;2023-03-01T15:00:32;3.20;99.90
15959;DHT22;8078;47.822;9.402;2023-03-01T15:03:08;3.50;99.90
15959;DHT22;8078;47.822;9.402;2023-03-01T15:05:39;3.20;99.90
15959;DHT22;8078;47.822;9.402;2023-03-01T15:08:06;3.00;99.90
15959;DHT22;8078;47.822;9.402;2023-03-01T15:10:34;2.60;99.90
15959;DHT22;8078;47.822;9.402;2023-03-01T15:13:20;2.30;99.90
15959;DHT22;8078;47.822;9.402;2023-03-01T15:15:47;1.90;99.90
15959;DHT22;8078;47.822;9.402;2023-03-01T15:18:20;1.70;99.90
15959;DHT22;8078;47.822;9.402;2023-03-01T15:20:47;1.60;99.90
15959;DHT22;8078;47.822;9.402;2023-03-01T15:23:28;1.40;99.90
15959;DHT22;8078;47.822;9.402;2023-03-01T15:25:55;1.30;99.90
15959;DHT22;8078;47.822;9.402;2023-03-01T15:28:30;1.20;99.90
15959;DHT22;8078;47.822;9.402;2023-03-01T15:31:13;1.20;99.90
15959;DHT22;8078;47.822;9.402;2023-03-01T15:33:41;1.20;99.90
15959;DHT22;8078;47.822;9.402;2023-03-01T15:36:33;1.10;99.90
15959;DHT22;8078;47.822;9.402;2023-03-01T15:39:00;1.00;99.90
15959;DHT22;8078;47.822;9.402;2023-03-01T15:41:31;1.00;99.90
15959;DHT22;8078;47.822;9.402;2023-03-01T15:44:14;1.00;99.90
15959;DHT22;8078;47.822;9.402;2023-03-01T15:46:39;1.20;99.90
15959;DHT22;8078;47.822;9.402;2023-03-01T15:52:04;1.00;99.90
15959;DHT22;8078;47.822;9.402;2023-03-01T15:54:30;0.80;99.90
15959;DHT22;8078;47.822;9.402;2023-03-01T15:56:56;0.90;99.90
15959;DHT22;8078;47.822;9.402;2023-03-01T15:59:22;0.80;99.90
15959;DHT22;8078;47.822;9.402;2023-03-01T16:01:48;1.00;99.90
15959;DHT22;8078;47.822;9.402;2023-03-01T16:04:16;1.30;99.90
15959;DHT22;8078;47.822;9.402;2023-03-01T16:06:50;1.70;99.90
15959;DHT22;8078;47.822;9.402;2023-03-01T16:09:25;2.00;99.90
15959;DHT22;8078;47.822;9.402;2023-03-01T16:11:51;2.20;99.90
15959;DHT22;8078;47.822;9.402;2023-03-01T16:14:18;2.40;99.90
15959;DHT22;8078;47.822;9.402;2023-03-01T16:16:44;2.70;99.90
15959;DHT22;8078;47.822;9.402;2023-03-01T16:19:10;2.70;99.90
15959;DHT22;8078;47.822;9.402;2023-03-01T16:21:36;2.70;99.90
15959;DHT22;8078;47.822;9.402;2023-03-01T16:24:01;2.60;99.90
15959;DHT22;8078;47.822;9.402;2023-03-01T16:26:27;2.00;99.90
15959;DHT22;8078;47.822;9.402;2023-03-01T16:28:56;1.70;99.90
15959;DHT22;8078;47.822;9.402;2023-03-01T16:31:23;1.30;99.90
15959;DHT22;8078;47.822;9.402;2023-03-01T16:33:53;1.10;99.90
15959;DHT22;8078;47.822;9.402;2023-03-01T16:36:21;0.80;99.90
15959;DHT22;8078;47.822;9.402;2023-03-01T16:38:49;0.60;99.90
15959;DHT22;8078;47.822;9.402;2023-03-01T16:41:16;0.30;99.90
15959;DHT22;8078;47.822;9.402;2023-03-01T16:43:43;0.20;99.90
15959;DHT22;8078;47.822;9.402;2023-03-01T16:46:17;0.00;99.90
15959;DHT22;8078;47.822;9.402;2023-03-01T16:48:44;-0.20;99.90
15959;DHT22;8078;47.822;9.402;2023-03-01T16:51:09;-0.40;99.90
15959;DHT22;8078;47.822;9.402;2023-03-01T16:53:35;-0.50;99.90
15959;DHT22;8078;47.822;9.402;2023-03-01T16:56:03;-0.60;99.90
15959;DHT22;8078;47.822;9.402;2023-03-01T16:58:29;-0.70;99.90
15959;DHT22;8078;47.822;9.402;2023-03-01T17:00:55;-0.80;99.90
15959;DHT22;8078;47.822;9.402;2023-03-01T17:03:22;-0.90;99.90
15959;DHT22;8078;47.822;9.402;2023-03-01T17:05:49;-0.90;99.90
15959;DHT22;8078;47.822;9.402;2023-03-01T17:08:15;-0.90;99.90
15959;DHT22;8078;47.822;9.402;2023-03-01T17:10:41;-0.90;99.90
15959;DHT22;8078;47.822;9.402;2023-03-01T17:13:10;-0.80;99.90
15959;DHT22;8078;47.822;9.402;2023-03-01T17:15:40;-0.80;99.90
15959;DHT22;8078;47.822;9.402;2023-03-01T17:18:06;-0.80;99.90
15959;DHT22;8078;47.822;9.402;2023-03-01T17:20:32;-0.80;99.90
15959;DHT22;8078;47.822;9.402;2023-03-01T17:22:58;-0.70;99.90
15959;DHT22;8078;47.822;9.402;2023-03-01T17:25:23;-0.70;99.90
15959;DHT22;8078;47.822;9.402;2023-03-01T17:27:49;-0.70;99.90
15959;DHT22;8078;47.822;9.402;2023-03-01T17:30:15;-0.60;99.90
15959;DHT22;8078;47.822;9.402;2023-03-01T17:32:40;-0.60;99.90
15959;DHT22;8078;47.822;9.402;2023-03-01T17:35:06;-0.60;99.90
15959;DHT22;8078;47.822;9.402;2023-03-01T17:37:33;-0.60;99.90
15959;DHT22;8078;47.822;9.402;2023-03-01T17:39:58;-0.60;99.90
15959;DHT22;8078;47.822;9.402;2023-03-01T17:42:24;-0.60;99.90
15959;DHT22;8078;47.822;9.402;2023-03-01T17:44:49;-0.50;99.90